Time;durP1;ratioP1;P1;durP2;ratioP2;P2;SDS_P1;SDS_P2;PMS_P1;PMS_P2;Temp;Humidity;BMP_temperature;BMP_pressure;BME280_temperature;BME280_humidity;BME280_pressure;Samples;Min_cycle;Max_cycle;Signal;HPM_P1;HPM_P2
2022/07/15 00:00:53;;;;;;;3.38;2.80;;;21.40;95.10;;;;;;4993681;28;20185;-36
2022/07/15 00:03:19;;;;;;;3.65;2.90;;;21.40;95.40;;;;;;4993774;28;20239;-36
2022/07/15 00:05:46;;;;;;;5.75;3.00;;;21.30;95.40;;;;;;4994291;28;20190;-35
2022/07/15 00:08:12;;;;;;;5.40;2.60;;;21.20;95.90;;;;;;4993064;28;20221;-35
2022/07/15 00:10:38;;;;;;;3.17;2.47;;;21.10;96.00;;;;;;4976301;28;20191;-34
2022/07/15 00:13:04;;;;;;;6.78;2.65;;;21.00;96.20;;;;;;4992603;28;20204;-35
2022/07/15 00:15:31;;;;;;;5.07;2.70;;;20.90;96.00;;;;;;4993495;28;20184;-34
2022/07/15 00:18:01;;;;;;;3.10;2.65;;;20.80;95.90;;;;;;4976704;28;20266;-34
2022/07/15 00:20:33;;;;;;;4.53;2.88;;;20.70;95.70;;;;;;5010570;28;20270;-37
2022/07/15 00:23:01;;;;;;;5.07;2.50;;;20.60;96.10;;;;;;4995368;28;20222;-35
2022/07/15 00:25:27;;;;;;;4.90;2.50;;;20.50;96.10;;;;;;4992010;28;20199;-35
2022/07/15 00:28:02;;;;;;;4.65;2.78;;;20.50;96.30;;;;;;4992449;28;20180;-35
2022/07/15 00:30:40;;;;;;;4.55;3.10;;;20.60;96.70;;;;;;5011587;28;20178;-34
2022/07/15 00:33:06;;;;;;;4.72;3.15;;;20.50;96.70;;;;;;5012635;28;20213;-35
2022/07/15 00:35:34;;;;;;;3.90;2.38;;;20.60;96.20;;;;;;4995034;28;20187;-34
2022/07/15 00:38:03;;;;;;;6.80;2.83;;;20.60;96.10;;;;;;4979402;28;20278;-36
2022/07/15 00:40:29;;;;;;;5.47;3.10;;;20.60;96.40;;;;;;4995864;28;20184;-34
2022/07/15 00:42:55;;;;;;;4.03;2.60;;;20.60;96.40;;;;;;4995948;28;20210;-35
2022/07/15 00:45:23;;;;;;;3.25;2.47;;;20.50;96.30;;;;;;4994817;28;20179;-34
2022/07/15 00:47:54;;;;;;;5.57;2.55;;;20.50;96.40;;;;;;5012721;28;20179;-34
2022/07/15 00:50:22;;;;;;;3.75;2.60;;;20.50;96.40;;;;;;4995234;28;20187;-34
2022/07/15 00:53:18;;;;;;;5.78;2.88;;;20.50;96.40;;;;;;4996080;28;20203;-35
2022/07/15 00:55:45;;;;;;;4.57;2.95;;;20.40;96.80;;;;;;4989813;28;20223;-34
2022/07/15 00:58:16;;;;;;;6.47;3.08;;;20.40;96.80;;;;;;4979193;28;20179;-34
2022/07/15 01:00:44;;;;;;;6.55;3.05;;;20.40;96.80;;;;;;4995047;28;20179;-34
2022/07/15 01:03:10;;;;;;;3.88;2.80;;;20.30;96.80;;;;;;4978259;28;20215;-34
2022/07/15 01:05:37;;;;;;;3.22;2.67;;;20.30;96.70;;;;;;4994745;28;20191;-33
2022/07/15 01:08:03;;;;;;;4.20;2.45;;;20.30;96.70;;;;;;4978828;28;20229;-34
2022/07/15 01:10:30;;;;;;;5.85;2.67;;;20.20;96.80;;;;;;4978395;28;20269;-34
2022/07/15 01:12:55;;;;;;;4.07;2.83;;;20.20;97.00;;;;;;4978033;28;20262;-34
2022/07/15 01:15:28;;;;;;;3.60;2.45;;;20.10;97.00;;;;;;4979270;28;20179;-33
2022/07/15 01:17:55;;;;;;;3.30;2.50;;;20.10;97.20;;;;;;4994966;28;20188;-34
2022/07/15 01:20:22;;;;;;;4.40;2.40;;;20.00;97.50;;;;;;4968421;28;20183;-34
2022/07/15 01:22:57;;;;;;;3.80;2.83;;;19.90;97.60;;;;;;4994589;28;20232;-34
2022/07/15 01:25:29;;;;;;;4.20;2.97;;;19.70;97.90;;;;;;4978687;28;20175;-34
2022/07/15 01:27:56;;;;;;;3.17;2.78;;;19.60;98.10;;;;;;4991100;28;20182;-33
2022/07/15 01:30:25;;;;;;;3.28;2.47;;;19.50;98.60;;;;;;4978880;28;20187;-33
2022/07/15 01:32:52;;;;;;;3.60;2.92;;;19.30;99.40;;;;;;4978608;28;20205;-34
2022/07/15 01:35:18;;;;;;;4.15;2.70;;;19.30;99.50;;;;;;4977991;28;20179;-34
2022/07/15 01:37:46;;;;;;;3.83;2.72;;;19.30;99.70;;;;;;4994004;28;20187;-34
2022/07/15 01:40:12;;;;;;;3.25;2.95;;;19.30;99.40;;;;;;4994027;28;20466;-34
2022/07/15 01:42:39;;;;;;;6.22;2.95;;;19.30;99.60;;;;;;4994178;28;20253;-33
2022/07/15 01:45:08;;;;;;;4.13;2.83;;;19.30;99.50;;;;;;4977824;28;20264;-34
2022/07/15 01:47:46;;;;;;;4.47;2.80;;;19.20;99.70;;;;;;4977974;28;20179;-34
2022/07/15 01:50:19;;;;;;;3.42;2.70;;;19.10;99.90;;;;;;4993434;28;20179;-34
2022/07/15 01:52:53;;;;;;;4.90;2.67;;;19.00;99.90;;;;;;4993932;28;20198;-34
2022/07/15 01:55:20;;;;;;;3.45;2.80;;;19.00;99.90;;;;;;4977955;28;20187;-33
2022/07/15 01:57:46;;;;;;;4.50;2.95;;;18.90;99.90;;;;;;4994000;28;20179;-34
2022/07/15 02:00:16;;;;;;;4.22;3.00;;;18.70;99.90;;;;;;4993641;28;20207;-34
2022/07/15 02:02:46;;;;;;;3.80;3.00;;;18.50;99.90;;;;;;4974312;28;20212;-34
2022/07/15 02:05:14;;;;;;;5.03;3.17;;;18.10;99.90;;;;;;4993226;28;20205;-33
2022/07/15 02:07:41;;;;;;;3.80;2.90;;;17.90;99.90;;;;;;4977770;28;20175;-34
2022/07/15 02:10:09;;;;;;;5.57;3.00;;;17.70;99.90;;;;;;4994088;28;20276;-34
2022/07/15 02:12:39;;;;;;;3.20;2.80;;;17.60;99.90;;;;;;4993374;28;20191;-33
2022/07/15 02:15:05;;;;;;;4.05;3.30;;;17.60;99.90;;;;;;4977486;28;20286;-34
2022/07/15 02:17:42;;;;;;;3.77;2.70;;;17.60;99.90;;;;;;4964438;28;20182;-35
2022/07/15 02:20:09;;;;;;;3.00;2.70;;;17.60;99.90;;;;;;4993915;28;20183;-33
2022/07/15 02:22:37;;;;;;;5.30;3.00;;;17.60;99.90;;;;;;4977278;28;20207;-34
2022/07/15 02:25:04;;;;;;;3.43;2.93;;;17.60;99.90;;;;;;4977674;28;20183;-33
2022/07/15 02:27:31;;;;;;;4.70;2.90;;;17.60;99.90;;;;;;4977443;28;20175;-33
2022/07/15 02:29:57;;;;;;;4.70;3.30;;;17.50;99.90;;;;;;4977430;28;20208;-34
2022/07/15 02:32:24;;;;;;;5.53;3.17;;;17.30;99.90;;;;;;4992985;28;20196;-34
2022/07/15 02:34:50;;;;;;;3.87;3.13;;;17.30;99.90;;;;;;4990120;28;20211;-35
2022/07/15 02:37:16;;;;;;;3.97;3.30;;;17.20;99.90;;;;;;4993052;28;20206;-34
2022/07/15 02:39:42;;;;;;;4.67;2.80;;;17.10;99.90;;;;;;4992848;28;20265;-35
2022/07/15 02:42:08;;;;;;;5.67;3.27;;;17.10;99.90;;;;;;4993286;28;20229;-34
2022/07/15 02:44:36;;;;;;;5.03;3.30;;;17.10;99.90;;;;;;4976711;28;20248;-35
2022/07/15 02:47:02;;;;;;;3.60;3.10;;;17.00;99.90;;;;;;4977601;28;20184;-34
2022/07/15 02:49:30;;;;;;;4.97;3.23;;;17.00;99.90;;;;;;4977158;28;20203;-35
2022/07/15 02:51:56;;;;;;;5.87;3.73;;;17.00;99.90;;;;;;4992948;28;20202;-35
2022/07/15 02:54:25;;;;;;;4.90;3.10;;;17.00;99.90;;;;;;4976874;28;20211;-34
2022/07/15 02:56:50;;;;;;;8.33;3.77;;;17.00;99.90;;;;;;4976682;28;20209;-35
2022/07/15 02:59:16;;;;;;;3.43;3.03;;;16.90;99.90;;;;;;4977039;28;20241;-35
2022/07/15 03:01:43;;;;;;;6.17;3.43;;;16.80;99.90;;;;;;4996898;28;20217;-34
2022/07/15 03:04:11;;;;;;;4.60;3.00;;;16.80;99.90;;;;;;4998605;28;20183;-34
2022/07/15 03:06:37;;;;;;;4.50;3.27;;;16.80;99.90;;;;;;5000159;28;20179;-34
2022/07/15 03:09:03;;;;;;;3.20;2.90;;;16.70;99.90;;;;;;4996677;28;20187;-34
2022/07/15 03:11:29;;;;;;;4.50;3.20;;;16.60;99.90;;;;;;5009091;28;20249;-35
2022/07/15 03:13:55;;;;;;;3.77;3.10;;;16.50;99.90;;;;;;4992563;28;20280;-34
2022/07/15 03:16:23;;;;;;;7.37;3.10;;;16.40;99.90;;;;;;4977220;28;20179;-34
2022/07/15 03:18:51;;;;;;;3.60;3.30;;;16.30;99.90;;;;;;4992967;28;20171;-34
2022/07/15 03:21:17;;;;;;;4.17;3.43;;;16.30;99.90;;;;;;4993119;28;20183;-34
2022/07/15 03:23:46;;;;;;;4.63;3.30;;;16.20;99.90;;;;;;4977064;28;20202;-34
2022/07/15 03:26:11;;;;;;;4.67;3.40;;;16.20;99.90;;;;;;4992381;28;20202;-35
2022/07/15 03:28:37;;;;;;;4.87;3.53;;;16.30;99.90;;;;;;4976909;28;20209;-35
2022/07/15 03:31:06;;;;;;;4.07;3.00;;;16.20;99.90;;;;;;4992786;28;20257;-35
2022/07/15 03:33:32;;;;;;;4.47;3.33;;;16.30;99.90;;;;;;4992789;28;20209;-37
2022/07/15 03:35:58;;;;;;;3.57;3.10;;;16.30;99.90;;;;;;4992674;28;20176;-34
2022/07/15 03:38:27;;;;;;;4.47;3.43;;;16.20;99.90;;;;;;4992776;28;20551;-34
2022/07/15 03:40:53;;;;;;;4.23;3.13;;;16.20;99.90;;;;;;4992735;28;20184;-34
2022/07/15 03:43:19;;;;;;;4.97;3.30;;;16.30;99.90;;;;;;4979073;28;20245;-34
2022/07/15 03:45:50;;;;;;;8.10;3.80;;;16.30;99.90;;;;;;4996144;28;20214;-35
2022/07/15 03:48:18;;;;;;;4.33;3.13;;;16.20;99.90;;;;;;4977220;28;20187;-35
2022/07/15 03:50:43;;;;;;;4.83;3.50;;;16.30;99.90;;;;;;4994212;28;20214;-35
2022/07/15 03:53:10;;;;;;;5.10;3.83;;;16.20;99.90;;;;;;5012443;28;20219;-35
2022/07/15 03:55:37;;;;;;;3.97;3.53;;;16.20;99.90;;;;;;4994972;28;20211;-35
2022/07/15 03:58:04;;;;;;;3.83;3.50;;;16.10;99.90;;;;;;4977075;28;20180;-35
2022/07/15 04:00:33;;;;;;;6.20;3.13;;;16.00;99.90;;;;;;4983020;28;20207;-35
2022/07/15 04:02:59;;;;;;;5.40;3.77;;;16.00;99.90;;;;;;4980086;28;20812;-34
2022/07/15 04:05:24;;;;;;;5.13;3.70;;;15.90;99.90;;;;;;4979370;28;20183;-35
2022/07/15 04:07:51;;;;;;;5.03;3.20;;;15.90;99.90;;;;;;4995933;28;20258;-34
2022/07/15 04:10:17;;;;;;;4.80;3.63;;;15.80;99.90;;;;;;4995968;28;20175;-34
2022/07/15 04:12:43;;;;;;;4.67;3.40;;;15.90;99.90;;;;;;5012044;28;20605;-35
2022/07/15 04:15:09;;;;;;;4.37;3.50;;;15.90;99.90;;;;;;4979395;28;20184;-35
2022/07/15 04:17:35;;;;;;;4.00;3.27;;;15.90;99.90;;;;;;4995820;28;20190;-35
2022/07/15 04:20:02;;;;;;;7.87;3.87;;;15.90;99.90;;;;;;4979175;28;20278;-35
2022/07/15 04:22:28;;;;;;;4.17;3.20;;;15.90;99.90;;;;;;4995033;28;20207;-34
2022/07/15 04:24:54;;;;;;;5.10;3.60;;;15.90;99.90;;;;;;4979745;28;20187;-34
2022/07/15 04:27:21;;;;;;;5.70;3.60;;;15.90;99.90;;;;;;4979661;28;20245;-34
2022/07/15 04:29:47;;;;;;;4.60;3.50;;;15.80;99.90;;;;;;4996135;28;20274;-34
2022/07/15 04:32:15;;;;;;;5.50;3.53;;;15.90;99.90;;;;;;4995602;28;20202;-34
2022/07/15 04:34:47;;;;;;;5.73;3.57;;;15.90;99.90;;;;;;4978678;28;20253;-34
2022/07/15 04:37:14;;;;;;;4.33;3.53;;;16.00;99.90;;;;;;5012122;28;20207;-34
2022/07/15 04:39:45;;;;;;;4.97;3.30;;;15.90;99.90;;;;;;4995340;28;20168;-35
2022/07/15 04:42:13;;;;;;;4.40;3.53;;;15.90;99.90;;;;;;4995358;28;20231;-34
2022/07/15 04:44:42;;;;;;;4.87;3.70;;;15.90;99.90;;;;;;4978862;28;20187;-35
2022/07/15 04:47:09;;;;;;;6.87;3.20;;;15.80;99.90;;;;;;4994806;28;20199;-34
2022/07/15 04:52:24;;;;;;;5.83;3.70;;;16.00;99.90;;;;;;4994976;28;20302;-35
2022/07/15 04:54:54;;;;;;;6.80;3.40;;;16.00;99.90;;;;;;4990053;28;20210;-33
2022/07/15 04:57:20;;;;;;;4.77;3.53;;;16.10;99.90;;;;;;4995291;28;20206;-35
2022/07/15 04:59:47;;;;;;;6.50;4.07;;;16.30;99.90;;;;;;4978877;28;20175;-35
2022/07/15 05:02:17;;;;;;;4.13;3.73;;;16.40;99.90;;;;;;4994532;28;20237;-34
2022/07/15 05:04:48;;;;;;;8.43;3.60;;;16.50;99.90;;;;;;4994827;28;20179;-34
2022/07/15 05:07:15;;;;;;;5.00;3.43;;;16.50;99.90;;;;;;4979096;28;20198;-34
2022/07/15 05:09:43;;;;;;;5.47;3.90;;;16.50;99.90;;;;;;4994508;28;20190;-35
2022/07/15 05:12:09;;;;;;;4.20;3.50;;;16.50;99.90;;;;;;4978068;28;20199;-35
2022/07/15 05:14:50;;;;;;;5.83;3.30;;;16.50;99.90;;;;;;4977131;28;20210;-35
2022/07/15 05:17:16;;;;;;;6.93;3.70;;;16.50;99.90;;;;;;4977560;28;20183;-34
2022/07/15 05:19:43;;;;;;;5.87;3.40;;;16.50;99.90;;;;;;4978265;28;20215;-34
2022/07/15 05:22:09;;;;;;;4.73;3.33;;;16.50;99.90;;;;;;4993679;28;20226;-34
2022/07/15 05:24:35;;;;;;;3.90;3.40;;;16.60;99.90;;;;;;4993683;28;20247;-34
2022/07/15 05:27:03;;;;;;;6.33;3.60;;;16.70;99.90;;;;;;4993790;28;20187;-33
2022/07/15 05:29:31;;;;;;;4.00;3.60;;;16.70;99.90;;;;;;4993756;28;20179;-34
2022/07/15 05:31:57;;;;;;;4.00;3.60;;;16.80;99.90;;;;;;4978668;28;20706;-34
2022/07/15 05:34:24;;;;;;;4.73;3.67;;;16.90;99.90;;;;;;4994395;28;20229;-34
2022/07/15 05:36:52;;;;;;;7.03;3.53;;;17.00;99.90;;;;;;4977955;28;20183;-34
2022/07/15 05:39:19;;;;;;;5.60;4.10;;;17.10;99.90;;;;;;4994515;28;20183;-34
2022/07/15 05:41:46;;;;;;;4.27;3.67;;;17.20;99.90;;;;;;4977949;28;20199;-36
2022/07/15 05:44:12;;;;;;;5.93;3.90;;;17.40;99.90;;;;;;4993443;28;20274;-34
2022/07/15 05:46:44;;;;;;;5.90;4.30;;;17.50;99.90;;;;;;4977849;28;20183;-35
2022/07/15 05:49:11;;;;;;;6.23;3.40;;;17.70;99.90;;;;;;4977518;28;20276;-34
2022/07/15 05:51:37;;;;;;;7.70;3.93;;;17.90;99.90;;;;;;5009654;28;20346;-34
2022/07/15 05:54:03;;;;;;;4.17;3.60;;;18.00;99.90;;;;;;4992638;28;20225;-34
2022/07/15 05:56:31;;;;;;;5.87;3.90;;;18.10;99.90;;;;;;4994020;28;20179;-34
2022/07/15 05:58:57;;;;;;;4.97;3.80;;;18.20;99.90;;;;;;4994204;28;20183;-35
2022/07/15 06:01:31;;;;;;;6.57;3.97;;;18.30;99.90;;;;;;4977507;28;20195;-35
2022/07/15 06:03:57;;;;;;;4.93;3.47;;;18.40;99.90;;;;;;4993911;28;20194;-34
2022/07/15 06:06:23;;;;;;;4.75;3.47;;;18.50;99.90;;;;;;4977320;28;20184;-34
2022/07/15 06:08:50;;;;;;;4.60;3.60;;;18.60;99.90;;;;;;4994474;28;20272;-35
2022/07/15 06:11:16;;;;;;;6.72;3.70;;;18.60;99.90;;;;;;4993319;28;20266;-34
2022/07/15 06:13:42;;;;;;;6.53;3.73;;;18.70;99.90;;;;;;4976641;28;20242;-35
2022/07/15 06:16:09;;;;;;;6.93;3.97;;;18.80;99.90;;;;;;4993390;28;20175;-34
2022/07/15 06:18:35;;;;;;;6.20;3.70;;;18.90;99.90;;;;;;4977673;28;20175;-34
2022/07/15 06:21:02;;;;;;;5.10;3.50;;;19.00;99.90;;;;;;4992494;28;20218;-34
2022/07/15 06:23:28;;;;;;;4.25;3.85;;;19.20;99.90;;;;;;4975878;28;20675;-35
2022/07/15 06:25:56;;;;;;;7.70;3.63;;;19.30;99.90;;;;;;4991406;28;20183;-36
2022/07/15 06:28:22;;;;;;;6.00;3.40;;;19.50;99.90;;;;;;4975953;28;20179;-36
2022/07/15 06:30:48;;;;;;;6.57;3.45;;;19.60;99.90;;;;;;4989552;28;20189;-36
2022/07/15 06:33:14;;;;;;;8.40;2.92;;;19.80;99.90;;;;;;4974261;28;20206;-35
2022/07/15 06:35:41;;;;;;;5.75;3.13;;;19.90;99.90;;;;;;4989631;28;20278;-35
2022/07/15 06:38:08;;;;;;;5.82;3.30;;;20.10;99.90;;;;;;4975098;28;20211;-34
2022/07/15 06:40:35;;;;;;;6.07;3.15;;;20.30;99.90;;;;;;4977254;28;20179;-35
2022/07/15 06:43:01;;;;;;;8.20;3.60;;;20.40;99.90;;;;;;4993551;28;20211;-36
2022/07/15 06:45:48;;;;;;;5.28;3.40;;;20.30;99.90;;;;;;4995001;28;20183;-35
2022/07/15 06:48:15;;;;;;;6.35;3.65;;;20.40;99.90;;;;;;4993089;28;20175;-35
2022/07/15 06:50:42;;;;;;;3.40;3.10;;;20.50;99.90;;;;;;4974947;28;20183;-38
2022/07/15 06:53:08;;;;;;;4.93;3.28;;;20.70;99.90;;;;;;4992882;28;20194;-38
2022/07/15 06:55:34;;;;;;;3.15;2.70;;;20.90;99.90;;;;;;4976516;28;20179;-36
2022/07/15 06:58:00;;;;;;;7.30;3.13;;;21.10;99.90;;;;;;4977028;28;20210;-38
2022/07/15 07:00:26;;;;;;;5.50;3.17;;;21.30;99.90;;;;;;4993506;28;20194;-38
2022/07/15 07:02:52;;;;;;;4.07;2.78;;;21.50;99.90;;;;;;4976401;28;20222;-35
2022/07/15 07:05:18;;;;;;;3.88;2.75;;;21.70;99.90;;;;;;4993226;28;20171;-37
2022/07/15 07:07:45;;;;;;;5.30;2.70;;;21.90;99.90;;;;;;4977167;28;20221;-38
2022/07/15 07:10:11;;;;;;;5.05;2.80;;;22.00;99.20;;;;;;4989121;28;20179;-36
2022/07/15 07:12:37;;;;;;;5.85;2.70;;;22.10;99.50;;;;;;5009313;28;20211;-38
2022/07/15 07:15:04;;;;;;;5.57;3.35;;;22.20;99.70;;;;;;4992996;28;20210;-37
2022/07/15 07:17:29;;;;;;;5.38;2.67;;;22.40;99.00;;;;;;4991699;28;20723;-36
2022/07/15 07:19:56;;;;;;;5.00;2.60;;;22.50;98.70;;;;;;4993462;28;20230;-36
2022/07/15 07:22:22;;;;;;;5.05;2.72;;;22.70;98.70;;;;;;4976097;28;20199;-36
2022/07/15 07:24:48;;;;;;;3.45;2.33;;;22.90;97.20;;;;;;4971321;28;20191;-36
2022/07/15 07:27:15;;;;;;;4.65;2.30;;;22.90;97.10;;;;;;4996392;28;20232;-36
2022/07/15 07:29:44;;;;;;;4.05;2.42;;;23.00;97.10;;;;;;4995745;28;20194;-37
2022/07/15 07:32:12;;;;;;;2.85;2.20;;;23.00;95.80;;;;;;4978685;28;20214;-37
2022/07/15 07:34:38;;;;;;;3.25;2.35;;;23.20;96.10;;;;;;4995203;28;20213;-37
2022/07/15 07:37:04;;;;;;;4.20;2.80;;;23.20;96.20;;;;;;4995291;28;20263;-37
2022/07/15 07:39:30;;;;;;;3.88;2.30;;;23.30;95.80;;;;;;4994837;28;20254;-38
2022/07/15 07:41:57;;;;;;;3.50;2.50;;;23.40;95.80;;;;;;4978994;28;20349;-37
2022/07/15 07:44:22;;;;;;;4.00;2.42;;;23.50;94.50;;;;;;4979864;28;20221;-37
2022/07/15 07:46:49;;;;;;;3.47;2.05;;;23.60;95.10;;;;;;4994921;28;20216;-38
2022/07/15 07:49:15;;;;;;;3.67;2.47;;;23.80;94.80;;;;;;4978808;28;20191;-38
2022/07/15 07:51:41;;;;;;;3.92;2.13;;;23.90;92.90;;;;;;4996600;28;20203;-38
2022/07/15 07:54:08;;;;;;;3.78;2.22;;;24.10;92.70;;;;;;4996055;28;20217;-39
2022/07/15 07:56:35;;;;;;;2.28;2.08;;;24.10;93.10;;;;;;5014176;28;20217;-39
2022/07/15 07:59:01;;;;;;;3.03;2.03;;;24.10;92.30;;;;;;5013584;28;20199;-39
2022/07/15 08:01:27;;;;;;;4.10;2.50;;;24.10;92.80;;;;;;5014064;28;20302;-40
2022/07/15 08:03:52;;;;;;;4.07;2.33;;;24.20;93.40;;;;;;4995603;28;20199;-42
2022/07/15 08:06:18;;;;;;;5.22;2.25;;;24.30;93.90;;;;;;5014012;28;20270;-38
2022/07/15 08:08:45;;;;;;;4.55;2.65;;;24.30;93.10;;;;;;4995516;28;20183;-39
2022/07/15 08:11:12;;;;;;;2.35;2.00;;;24.30;92.90;;;;;;4996373;28;20213;-40
2022/07/15 08:13:38;;;;;;;3.63;2.15;;;24.50;91.70;;;;;;4995574;28;20238;-36
2022/07/15 08:16:06;;;;;;;4.68;2.22;;;24.30;90.30;;;;;;4978635;28;20218;-39
2022/07/15 08:18:32;;;;;;;4.18;2.17;;;24.40;91.50;;;;;;4994285;28;20179;-36
2022/07/15 08:20:58;;;;;;;3.35;2.20;;;24.30;91.00;;;;;;4995154;28;20179;-37
2022/07/15 08:23:24;;;;;;;4.55;2.30;;;24.50;90.90;;;;;;4994780;28;20205;-40
2022/07/15 08:25:51;;;;;;;5.85;2.40;;;24.70;90.80;;;;;;4994916;28;20195;-39
2022/07/15 08:28:18;;;;;;;5.10;2.67;;;24.70;90.50;;;;;;5014057;28;20206;-38
2022/07/15 08:30:44;;;;;;;3.85;2.40;;;24.80;90.80;;;;;;4995487;28;20217;-39
2022/07/15 08:33:10;;;;;;;3.00;2.25;;;25.00;90.80;;;;;;4994103;28;20195;-37
2022/07/15 08:35:36;;;;;;;3.22;1.90;;;25.20;89.80;;;;;;4995585;28;20217;-37
2022/07/15 08:38:06;;;;;;;3.45;2.08;;;25.50;89.60;;;;;;4981454;28;20274;-38
2022/07/15 08:40:36;;;;;;;9.02;2.35;;;25.80;88.60;;;;;;4994369;28;20224;-38
2022/07/15 08:43:07;;;;;;;6.53;2.20;;;26.00;88.10;;;;;;4995024;28;20195;-38
2022/07/15 08:45:37;;;;;;;5.78;2.25;;;26.20;86.30;;;;;;4994976;28;20184;-38
2022/07/15 08:48:05;;;;;;;4.15;2.28;;;26.20;87.70;;;;;;5013327;28;20625;-41
2022/07/15 08:50:32;;;;;;;3.75;2.10;;;26.40;86.90;;;;;;4994633;28;20180;-37
2022/07/15 08:52:58;;;;;;;3.60;2.25;;;26.40;87.20;;;;;;4995428;28;20206;-38
2022/07/15 08:55:25;;;;;;;3.50;1.88;;;26.50;87.30;;;;;;4994390;28;20179;-38
2022/07/15 08:57:52;;;;;;;2.83;2.03;;;26.60;85.20;;;;;;4995587;28;20183;-37
2022/07/15 09:00:28;;;;;;;3.40;2.45;;;26.60;83.80;;;;;;5012950;28;20179;-38
2022/07/15 09:03:04;;;;;;;2.80;2.05;;;26.70;85.40;;;;;;4995362;28;20245;-37
2022/07/15 09:05:33;;;;;;;4.13;2.30;;;26.70;84.30;;;;;;4995193;28;20187;-38
2022/07/15 09:08:11;;;;;;;2.83;1.92;;;26.40;84.20;;;;;;4994438;28;20183;-38
2022/07/15 09:10:53;;;;;;;4.50;2.25;;;26.30;84.50;;;;;;5011430;28;20226;-41
2022/07/15 09:13:28;;;;;;;5.30;1.90;;;26.30;84.20;;;;;;4995172;28;20203;-37
2022/07/15 09:15:55;;;;;;;2.80;1.98;;;26.50;84.30;;;;;;4994808;28;20186;-38
2022/07/15 09:18:24;;;;;;;3.40;2.33;;;26.60;84.70;;;;;;4994912;28;20286;-39
2022/07/15 09:20:50;;;;;;;4.60;2.20;;;26.40;86.30;;;;;;4994763;28;20183;-40
2022/07/15 09:23:21;;;;;;;5.38;2.30;;;26.60;84.70;;;;;;4995085;28;20195;-37
2022/07/15 09:25:49;;;;;;;2.53;2.33;;;26.80;83.90;;;;;;4995059;28;20202;-37
2022/07/15 09:28:15;;;;;;;4.70;2.65;;;26.90;84.80;;;;;;5011113;28;20183;-38
2022/07/15 09:33:39;;;;;;;5.55;2.17;;;27.40;82.30;;;;;;5012356;28;20207;-38
2022/07/15 09:36:13;;;;;;;2.47;1.90;;;27.60;85.00;;;;;;4994675;28;20175;-40
2022/07/15 09:38:53;;;;;;;4.18;2.38;;;27.80;82.80;;;;;;4994600;28;20175;-39
2022/07/15 09:41:20;;;;;;;3.28;2.40;;;27.90;81.80;;;;;;5011026;28;20210;-38
2022/07/15 09:43:52;;;;;;;3.50;2.22;;;28.00;82.70;;;;;;4994708;28;20205;-38
2022/07/15 09:46:20;;;;;;;5.45;2.70;;;28.20;83.00;;;;;;4994711;28;20237;-38
2022/07/15 09:48:47;;;;;;;4.50;2.40;;;27.90;82.50;;;;;;4994454;28;20251;-37
2022/07/15 09:51:14;;;;;;;2.67;2.38;;;27.40;84.50;;;;;;4994175;28;20179;-38
2022/07/15 09:53:41;;;;;;;3.63;1.92;;;27.50;84.40;;;;;;4994018;28;20214;-37
2022/07/15 09:56:10;;;;;;;2.50;2.20;;;27.80;83.00;;;;;;4994241;28;20210;-39
2022/07/15 09:58:41;;;;;;;3.70;2.20;;;27.70;80.60;;;;;;4994222;28;20243;-39
2022/07/15 10:01:08;;;;;;;4.55;2.50;;;27.90;81.80;;;;;;4994376;28;20208;-38
2022/07/15 10:03:35;;;;;;;3.83;2.20;;;27.80;80.10;;;;;;4994255;28;20263;-37
2022/07/15 10:06:02;;;;;;;3.60;2.97;;;27.80;83.00;;;;;;4993978;28;20222;-37
2022/07/15 10:08:32;;;;;;;3.60;2.47;;;28.20;81.80;;;;;;4994063;28;20183;-38
2022/07/15 10:10:59;;;;;;;3.88;2.42;;;28.30;80.00;;;;;;5010528;28;20203;-39
2022/07/15 10:14:08;;;;;;;3.20;2.00;;;28.40;81.90;;;;;;4993957;28;20211;-41
2022/07/15 10:16:52;;;;;;;2.70;2.50;;;28.50;80.50;;;;;;5011483;28;20179;-39
2022/07/15 10:19:48;;;;;;;3.95;2.70;;;28.30;80.20;;;;;;5010074;28;20211;-38
2022/07/15 10:22:33;;;;;;;5.43;2.70;;;28.40;80.30;;;;;;4994181;28;20207;-38
2022/07/15 10:25:09;;;;;;;3.15;2.35;;;28.40;80.10;;;;;;4993581;28;20187;-41
2022/07/15 10:27:43;;;;;;;3.53;2.50;;;28.70;81.80;;;;;;4993994;28;20256;-39
2022/07/15 10:30:09;;;;;;;2.53;2.08;;;28.60;77.80;;;;;;4994045;28;20182;-37
2022/07/15 10:33:03;;;;;;;4.05;2.55;;;28.50;78.50;;;;;;4977396;28;20238;-38
2022/07/15 10:35:49;;;;;;;2.35;2.15;;;28.80;80.90;;;;;;5010783;28;20183;-38
2022/07/15 10:38:33;;;;;;;3.92;2.25;;;29.00;78.60;;;;;;4992768;28;20191;-38
2022/07/15 10:41:05;;;;;;;4.95;2.53;;;29.40;78.80;;;;;;4993005;28;20182;-40
2022/07/15 10:43:50;;;;;;;3.58;2.67;;;29.60;76.20;;;;;;4992805;28;20275;-38
2022/07/15 10:46:16;;;;;;;3.72;2.30;;;29.10;77.30;;;;;;4992459;28;20183;-38
2022/07/15 10:49:08;;;;;;;2.47;2.22;;;29.10;78.20;;;;;;4993153;28;20180;-38
2022/07/15 10:51:37;;;;;;;3.28;2.53;;;29.10;79.30;;;;;;4955246;28;20207;-39
2022/07/15 10:54:09;;;;;;;3.00;2.80;;;29.40;77.60;;;;;;4993093;28;20757;-38
2022/07/15 10:56:43;;;;;;;4.75;2.42;;;29.40;75.90;;;;;;4994446;28;20178;-38
2022/07/15 10:59:13;;;;;;;3.58;2.33;;;29.00;76.70;;;;;;4997969;28;20190;-38
2022/07/15 11:01:44;;;;;;;3.15;2.40;;;28.90;77.80;;;;;;5001968;28;20199;-38
2022/07/15 11:04:26;;;;;;;3.45;2.28;;;28.80;77.70;;;;;;5001565;28;20187;-39
2022/07/15 11:07:07;;;;;;;3.47;2.35;;;28.60;77.80;;;;;;5018269;28;20186;-40
2022/07/15 11:09:53;;;;;;;5.40;2.60;;;28.60;80.60;;;;;;5000144;28;20639;-40
2022/07/15 11:12:22;;;;;;;12.15;2.78;;;28.90;77.40;;;;;;5000366;28;20207;-38
2022/07/15 11:14:55;;;;;;;2.95;2.45;;;28.70;77.40;;;;;;4999977;28;20241;-39
2022/07/15 11:17:24;;;;;;;3.35;2.50;;;28.90;78.60;;;;;;5000435;28;20486;-39
2022/07/15 11:19:58;;;;;;;4.57;2.47;;;29.10;79.00;;;;;;5016828;28;20182;-39
2022/07/15 11:22:26;;;;;;;2.60;2.15;;;28.80;77.30;;;;;;5000376;28;20207;-40
2022/07/15 11:24:53;;;;;;;4.45;2.40;;;28.60;78.20;;;;;;4999862;28;20190;-36
2022/07/15 11:27:25;;;;;;;3.88;2.50;;;28.50;78.30;;;;;;4999138;28;20670;-36
2022/07/15 11:30:03;;;;;;;3.42;2.38;;;28.20;78.00;;;;;;4999813;28;20179;-35
2022/07/15 11:32:33;;;;;;;6.20;2.70;;;28.20;79.00;;;;;;5000505;28;20249;-36
2022/07/15 11:35:04;;;;;;;3.83;2.40;;;28.10;78.40;;;;;;5000253;28;20191;-36
2022/07/15 11:37:35;;;;;;;3.15;2.50;;;28.10;80.00;;;;;;5000163;28;20202;-37
2022/07/15 11:40:07;;;;;;;5.82;2.38;;;28.20;80.10;;;;;;4999541;28;20175;-36
2022/07/15 11:45:39;;;;;;;2.88;2.42;;;28.10;80.10;;;;;;4977283;28;20191;-35
2022/07/15 11:48:08;;;;;;;4.43;2.47;;;28.10;80.90;;;;;;4999903;28;20202;-36
2022/07/15 11:50:37;;;;;;;2.80;2.60;;;28.40;79.10;;;;;;4998632;28;20281;-37
2022/07/15 11:53:14;;;;;;;4.15;2.30;;;28.50;77.60;;;;;;5016274;28;20195;-35
2022/07/15 11:55:56;;;;;;;2.58;2.30;;;28.70;83.10;;;;;;4999692;28;20244;-35
2022/07/15 11:58:38;;;;;;;3.58;2.60;;;28.80;78.60;;;;;;5000066;28;20175;-36
2022/07/15 12:01:07;;;;;;;4.05;2.20;;;29.10;78.70;;;;;;4999878;28;20202;-36
2022/07/15 12:11:50;;;;;;;2.95;2.30;;;29.50;76.40;;;;;;4955283;28;20220;-90
2022/07/15 12:14:21;;;;;;;2.80;2.45;;;29.00;79.60;;;;;;4939756;29;20232;-87
2022/07/15 12:16:50;;;;;;;2.85;2.30;;;29.00;78.80;;;;;;4923203;29;20356;-87
2022/07/15 12:19:24;;;;;;;3.25;2.20;;;29.30;77.10;;;;;;4982059;28;20194;-90
2022/07/15 12:21:54;;;;;;;2.85;2.50;;;29.50;78.80;;;;;;4982103;28;20234;-90
2022/07/15 12:24:51;;;;;;;2.35;2.10;;;29.60;75.80;;;;;;4997814;28;20179;-90
2022/07/15 12:27:19;;;;;;;4.75;2.65;;;29.00;77.20;;;;;;4998785;28;20180;-90
2022/07/15 12:29:45;;;;;;;3.45;2.50;;;28.80;77.10;;;;;;4998366;28;20270;-91
2022/07/15 12:32:13;;;;;;;4.30;2.50;;;28.60;78.30;;;;;;4998347;28;20204;-90
2022/07/15 12:34:58;;;;;;;4.28;2.60;;;28.70;78.30;;;;;;4998060;28;20223;-91
2022/07/15 12:37:48;;;;;;;3.47;2.60;;;29.10;77.40;;;;;;4981912;28;20183;-91
2022/07/15 12:40:21;;;;;;;6.20;2.47;;;29.50;77.20;;;;;;4998405;28;20164;-91
2022/07/15 12:42:50;;;;;;;3.00;2.30;;;29.70;77.40;;;;;;4998419;28;20180;-90
2022/07/15 12:45:21;;;;;;;5.38;2.55;;;29.50;77.20;;;;;;4998299;28;20687;-92
2022/07/15 12:48:14;;;;;;;5.72;2.88;;;29.40;77.50;;;;;;4998461;28;20176;-91
2022/07/15 12:51:04;;;;;;;2.85;2.42;;;29.00;77.20;;;;;;4997601;28;20273;-91
2022/07/15 12:53:37;;;;;;;3.60;2.70;;;29.00;77.20;;;;;;4997876;28;20211;-91
2022/07/15 12:56:06;;;;;;;6.25;2.70;;;28.80;78.70;;;;;;4997721;28;20175;-91
2022/07/15 12:58:37;;;;;;;4.03;2.60;;;28.60;79.00;;;;;;4997609;28;20211;-91
2022/07/15 13:01:14;;;;;;;3.92;2.72;;;28.20;78.00;;;;;;4997932;28;20198;-91
2022/07/15 13:03:41;;;;;;;5.03;2.78;;;27.80;79.60;;;;;;4978354;28;20251;-91
2022/07/15 13:06:08;;;;;;;4.18;3.08;;;27.70;80.90;;;;;;4978272;28;20180;-91
2022/07/15 13:08:48;;;;;;;4.72;2.63;;;27.90;81.10;;;;;;4979172;28;20219;-91
2022/07/15 13:11:15;;;;;;;5.10;2.80;;;28.00;80.50;;;;;;4981168;28;20196;-91
2022/07/15 13:13:42;;;;;;;3.80;2.90;;;28.40;79.60;;;;;;5013347;28;20309;-91
2022/07/15 13:16:08;;;;;;;4.88;2.80;;;28.60;79.40;;;;;;4982930;28;20183;-91